createdAt,value
2017-04-24T00:00:21.816Z,1010.79
2017-04-24T00:01:02.298Z,1010.77
2017-04-24T00:01:42.800Z,1010.81
2017-04-24T00:02:23.274Z,1010.76
2017-04-24T00:03:03.755Z,1010.76
2017-04-24T00:03:44.222Z,1010.73
2017-04-24T00:04:24.723Z,1010.74
2017-04-24T00:05:05.197Z,1010.73
2017-04-24T00:05:45.679Z,1010.75
2017-04-24T00:06:26.153Z,1010.72
2017-04-24T00:07:06.630Z,1010.71
2017-04-24T00:07:47.184Z,1010.72
2017-04-24T00:08:27.601Z,1010.7
2017-04-24T00:09:08.080Z,1010.69
2017-04-24T00:09:48.570Z,1010.66
2017-04-24T00:10:29.692Z,1010.63
2017-04-24T00:11:10.175Z,1010.62
2017-04-24T00:11:50.662Z,1010.58
2017-04-24T00:12:31.132Z,1010.57
2017-04-24T00:13:11.628Z,1010.58
2017-04-24T00:13:52.103Z,1010.6
2017-04-24T00:14:32.566Z,1010.56
2017-04-24T00:15:13.053Z,1010.54
2017-04-24T00:15:53.545Z,1010.56
2017-04-24T00:16:34.031Z,1010.58
2017-04-24T00:17:14.525Z,1010.57
2017-04-24T00:17:55.013Z,1010.53
2017-04-24T00:18:35.496Z,1010.56
2017-04-24T00:19:15.978Z,1010.53
2017-04-24T00:19:56.475Z,1010.49
2017-04-24T00:20:36.952Z,1010.49
2017-04-24T00:21:17.441Z,1010.51
2017-04-24T00:21:57.928Z,1010.45
2017-04-24T00:22:38.419Z,1010.43
2017-04-24T00:23:18.916Z,1010.42
2017-04-24T00:23:59.398Z,1010.42
2017-04-24T00:24:39.893Z,1010.45
2017-04-24T00:25:20.408Z,1010.39
2017-04-24T00:26:00.887Z,1010.42
2017-04-24T00:26:41.386Z,1010.39
2017-04-24T00:27:21.865Z,1010.41
2017-04-24T00:28:02.353Z,1010.42
2017-04-24T00:28:42.831Z,1010.37
2017-04-24T00:29:23.320Z,1010.33
2017-04-24T00:30:03.805Z,1010.38
2017-04-24T00:30:44.287Z,1010.36
2017-04-24T00:31:24.786Z,1010.36
2017-04-24T00:32:05.279Z,1010.31
2017-04-24T00:32:45.764Z,1010.32
2017-04-24T00:33:26.260Z,1010.3
2017-04-24T00:34:06.756Z,1010.31
2017-04-24T00:34:47.239Z,1010.3
2017-04-24T00:35:27.722Z,1010.27
2017-04-24T00:36:08.222Z,1010.27
2017-04-24T00:36:48.722Z,1010.25
2017-04-24T00:37:29.192Z,1010.22
2017-04-24T00:38:09.675Z,1010.27
2017-04-24T00:38:50.167Z,1010.26
2017-04-24T00:39:30.646Z,1010.23
2017-04-24T00:40:11.130Z,1010.19
2017-04-24T00:40:51.608Z,1010.26
2017-04-24T00:41:32.104Z,1010.24
2017-04-24T00:42:12.586Z,1010.24
2017-04-24T00:42:53.066Z,1010.27
2017-04-24T00:43:33.531Z,1010.22
2017-04-24T00:44:14.027Z,1010.21
2017-04-24T00:44:54.521Z,1010.22
2017-04-24T00:45:35.013Z,1010.21
2017-04-24T00:46:15.506Z,1010.23
2017-04-24T00:46:55.998Z,1010.21
2017-04-24T00:47:36.500Z,1010.21
2017-04-24T00:48:16.974Z,1010.27
2017-04-24T00:48:57.456Z,1010.25
2017-04-24T00:49:37.931Z,1010.23
2017-04-24T00:50:18.439Z,1010.24
2017-04-24T00:50:58.932Z,1010.23
2017-04-24T00:51:39.417Z,1010.23
2017-04-24T00:52:19.911Z,1010.2
2017-04-24T00:53:00.405Z,1010.23
2017-04-24T00:53:40.896Z,1010.2
2017-04-24T00:54:21.390Z,1010.19
2017-04-24T00:55:01.882Z,1010.22
2017-04-24T00:55:42.365Z,1010.21
2017-04-24T00:56:22.861Z,1010.17
2017-04-24T00:57:03.351Z,1010.18
2017-04-24T00:57:43.838Z,1010.18
2017-04-24T00:58:24.323Z,1010.15
2017-04-24T00:59:04.805Z,1010.15
2017-04-24T00:59:45.294Z,1010.13
2017-04-24T01:00:25.784Z,1010.14
2017-04-24T01:01:06.266Z,1010.12
2017-04-24T01:01:46.754Z,1010.13
2017-04-24T01:02:27.234Z,1010.12
2017-04-24T01:03:07.718Z,1010.1
2017-04-24T01:03:48.212Z,1010.11
2017-04-24T01:04:28.708Z,1010.12
2017-04-24T01:05:09.188Z,1010.13
2017-04-24T01:05:49.671Z,1010.13
2017-04-24T01:06:30.159Z,1010.1
2017-04-24T01:07:10.644Z,1010.12
2017-04-24T01:07:51.125Z,1010.12
2017-04-24T01:08:31.600Z,1010.11
2017-04-24T01:09:12.103Z,1010.11
2017-04-24T01:09:52.578Z,1010.1
2017-04-24T01:10:33.062Z,1010.07
2017-04-24T01:11:13.544Z,1010.1
2017-04-24T01:11:54.030Z,1010.1
2017-04-24T01:12:34.515Z,1010.07
2017-04-24T01:13:14.997Z,1010.07
2017-04-24T01:13:55.494Z,1010.01
2017-04-24T01:14:35.990Z,1010.01
2017-04-24T01:15:16.475Z,1010
2017-04-24T01:15:56.954Z,1010.02
2017-04-24T01:16:37.450Z,1010.02
2017-04-24T01:17:17.931Z,1009.97
2017-04-24T01:17:58.421Z,1009.96
2017-04-24T01:18:38.906Z,1009.97
2017-04-24T01:19:19.407Z,1009.92
2017-04-24T01:19:59.893Z,1009.93
2017-04-24T01:20:40.414Z,1009.94
2017-04-24T01:21:20.880Z,1009.92
2017-04-24T01:22:01.365Z,1009.94
2017-04-24T01:22:41.851Z,1009.95
2017-04-24T01:23:22.335Z,1009.92
2017-04-24T01:24:02.820Z,1009.9
2017-04-24T01:24:43.309Z,1009.91
2017-04-24T01:25:23.803Z,1009.9
2017-04-24T01:26:04.299Z,1009.9
2017-04-24T01:26:44.783Z,1009.87
2017-04-24T01:27:25.272Z,1009.88
2017-04-24T01:28:05.757Z,1009.86
2017-04-24T01:28:46.249Z,1009.86
2017-04-24T01:29:26.721Z,1009.85
2017-04-24T01:30:07.203Z,1009.85
2017-04-24T01:30:47.697Z,1009.82
2017-04-24T01:31:28.186Z,1009.83
2017-04-24T01:32:08.678Z,1009.78
2017-04-24T01:32:49.191Z,1009.76
2017-04-24T01:33:29.646Z,1009.77
2017-04-24T01:34:10.131Z,1009.76
2017-04-24T01:34:50.628Z,1009.74
2017-04-24T01:35:31.117Z,1009.72
2017-04-24T01:36:11.602Z,1009.69
2017-04-24T01:36:52.079Z,1009.67
2017-04-24T01:37:32.559Z,1009.71
2017-04-24T01:38:13.055Z,1009.67
2017-04-24T01:38:53.538Z,1009.7
2017-04-24T01:39:34.015Z,1009.63
2017-04-24T01:40:14.497Z,1009.65
2017-04-24T01:40:54.989Z,1009.6
2017-04-24T01:41:35.469Z,1009.61
2017-04-24T01:42:15.949Z,1009.6
2017-04-24T01:42:56.432Z,1009.63
2017-04-24T01:43:36.923Z,1009.59
2017-04-24T01:44:17.404Z,1009.61
2017-04-24T01:44:57.886Z,1009.56
2017-04-24T01:45:38.365Z,1009.58
2017-04-24T01:46:18.861Z,1009.59
2017-04-24T01:46:59.343Z,1009.57
2017-04-24T01:47:39.822Z,1009.51
2017-04-24T01:48:20.300Z,1009.49
2017-04-24T01:49:00.800Z,1009.51
2017-04-24T01:49:41.284Z,1009.47
2017-04-24T01:50:21.787Z,1009.48
2017-04-24T01:51:02.272Z,1009.46
2017-04-24T01:51:42.754Z,1009.45
2017-04-24T01:52:23.236Z,1009.46
2017-04-24T01:53:03.722Z,1009.49
2017-04-24T01:53:44.217Z,1009.48
2017-04-24T01:54:24.701Z,1009.44
2017-04-24T01:55:05.190Z,1009.44
2017-04-24T01:55:45.693Z,1009.44
2017-04-24T01:56:26.174Z,1009.41
2017-04-24T01:57:06.676Z,1009.42
2017-04-24T01:57:47.165Z,1009.4
2017-04-24T01:58:27.648Z,1009.41
2017-04-24T01:59:08.143Z,1009.4
2017-04-24T01:59:48.641Z,1009.36
2017-04-24T02:00:29.126Z,1009.34
2017-04-24T02:01:09.604Z,1009.37
2017-04-24T02:01:50.091Z,1009.34
2017-04-24T02:02:30.583Z,1009.32
2017-04-24T02:03:11.065Z,1009.31
2017-04-24T02:03:51.562Z,1009.31
2017-04-24T02:04:32.058Z,1009.3
2017-04-24T02:05:12.542Z,1009.27
2017-04-24T02:05:53.029Z,1009.29
2017-04-24T02:06:33.521Z,1009.27
2017-04-24T02:07:14.009Z,1009.26
2017-04-24T02:07:54.488Z,1009.25
2017-04-24T02:08:34.980Z,1009.21
2017-04-24T02:09:15.475Z,1009.18
2017-04-24T02:09:55.948Z,1009.24
2017-04-24T02:10:36.442Z,1009.17
2017-04-24T02:11:16.913Z,1009.19
2017-04-24T02:11:57.405Z,1009.16
2017-04-24T02:12:37.888Z,1009.13
2017-04-24T02:13:18.377Z,1009.18
2017-04-24T02:13:58.859Z,1009.15
2017-04-24T02:14:39.343Z,1009.17
2017-04-24T02:15:19.817Z,1009.15
2017-04-24T02:16:00.303Z,1009.11
2017-04-24T02:16:40.789Z,1009.16
2017-04-24T02:17:21.273Z,1009.14
2017-04-24T02:18:01.760Z,1009.11
2017-04-24T02:18:42.265Z,1009.1
2017-04-24T02:19:22.757Z,1009.06
2017-04-24T02:20:03.244Z,1009.08
2017-04-24T02:20:43.755Z,1009.04
2017-04-24T02:21:24.230Z,1009.1
2017-04-24T02:22:04.709Z,1009.06
2017-04-24T02:22:45.189Z,1009.04
2017-04-24T02:23:25.674Z,1009.08
2017-04-24T02:24:06.162Z,1009.06
2017-04-24T02:24:46.645Z,1009.05
2017-04-24T02:25:27.121Z,1009.02
2017-04-24T02:27:39.823Z,1009.04
2017-04-24T02:28:20.302Z,1009.04
2017-04-24T02:29:00.765Z,1009.07
2017-04-24T02:29:41.262Z,1009.04
2017-04-24T02:30:21.758Z,1008.99
2017-04-24T02:31:02.240Z,1009.02
2017-04-24T02:31:42.719Z,1009.01
2017-04-24T02:32:23.205Z,1009.01
2017-04-24T02:33:03.692Z,1009.01
2017-04-24T02:33:44.182Z,1008.98
2017-04-24T02:34:24.637Z,1008.92
2017-04-24T02:35:05.121Z,1008.99
2017-04-24T02:35:45.623Z,1008.95
2017-04-24T02:36:26.087Z,1008.96
2017-04-24T02:37:06.563Z,1008.92
2017-04-24T02:37:47.047Z,1008.94
2017-04-24T02:38:27.532Z,1008.92
2017-04-24T02:39:08.022Z,1008.9
2017-04-24T02:39:48.499Z,1008.9
2017-04-24T02:40:28.991Z,1008.85
2017-04-24T02:41:09.478Z,1008.9
2017-04-24T02:41:49.974Z,1008.87
2017-04-24T02:42:30.461Z,1008.91
2017-04-24T02:43:10.942Z,1008.89
2017-04-24T02:43:51.431Z,1008.89
2017-04-24T02:44:31.920Z,1008.9
2017-04-24T02:45:12.412Z,1008.89
2017-04-24T02:45:52.904Z,1008.88
2017-04-24T02:46:33.384Z,1008.82
2017-04-24T02:47:13.871Z,1008.89
2017-04-24T02:47:54.357Z,1008.87
2017-04-24T02:48:34.851Z,1008.87
2017-04-24T02:49:15.326Z,1008.89
2017-04-24T02:49:55.808Z,1008.87
2017-04-24T02:50:36.301Z,1008.84
2017-04-24T02:51:16.785Z,1008.85
2017-04-24T02:51:57.263Z,1008.8
2017-04-24T02:52:37.755Z,1008.84
2017-04-24T02:53:18.250Z,1008.86
2017-04-24T02:53:58.735Z,1008.8
2017-04-24T02:54:39.240Z,1008.81
2017-04-24T02:55:19.727Z,1008.79
2017-04-24T02:56:00.206Z,1008.78
2017-04-24T02:56:40.678Z,1008.76
2017-04-24T02:57:21.190Z,1008.77
2017-04-24T02:58:01.647Z,1008.74
2017-04-24T02:58:42.141Z,1008.75
2017-04-24T02:59:22.621Z,1008.78
2017-04-24T03:00:03.121Z,1008.71
2017-04-24T03:00:43.609Z,1008.75
2017-04-24T03:01:24.093Z,1008.75
2017-04-24T03:02:04.596Z,1008.73
2017-04-24T03:02:45.058Z,1008.72
2017-04-24T03:03:25.543Z,1008.71
2017-04-24T03:04:06.023Z,1008.68
2017-04-24T03:04:46.513Z,1008.69
2017-04-24T03:05:27.001Z,1008.7
2017-04-24T03:06:07.488Z,1008.68
2017-04-24T03:06:47.967Z,1008.68
2017-04-24T03:07:28.467Z,1008.68
2017-04-24T03:08:08.956Z,1008.66
2017-04-24T03:08:49.443Z,1008.65
2017-04-24T03:09:29.936Z,1008.69
2017-04-24T03:10:10.433Z,1008.66
2017-04-24T03:10:50.917Z,1008.66
2017-04-24T03:11:31.428Z,1008.7
2017-04-24T03:12:11.887Z,1008.67
2017-04-24T03:12:52.369Z,1008.7
2017-04-24T03:13:32.839Z,1008.69
2017-04-24T03:14:13.328Z,1008.65
2017-04-24T03:14:53.811Z,1008.66
2017-04-24T03:15:34.305Z,1008.64
2017-04-24T03:16:14.786Z,1008.65
2017-04-24T03:16:55.259Z,1008.61
2017-04-24T03:17:35.747Z,1008.61
2017-04-24T03:18:16.245Z,1008.57
2017-04-24T03:18:56.724Z,1008.56
2017-04-24T03:19:37.223Z,1008.59
2017-04-24T03:20:17.716Z,1008.54
2017-04-24T03:20:58.198Z,1008.53
2017-04-24T03:21:38.691Z,1008.53
2017-04-24T03:22:19.157Z,1008.52
2017-04-24T03:22:59.652Z,1008.47
2017-04-24T03:23:40.133Z,1008.47
2017-04-24T03:24:20.617Z,1008.47
2017-04-24T03:25:01.100Z,1008.5
2017-04-24T03:25:41.585Z,1008.46
2017-04-24T03:26:22.068Z,1008.49
2017-04-24T03:27:02.573Z,1008.45
2017-04-24T03:27:43.055Z,1008.45
2017-04-24T03:28:23.538Z,1008.47
2017-04-24T03:29:04.026Z,1008.41
2017-04-24T03:29:44.518Z,1008.42
2017-04-24T03:30:24.999Z,1008.39
2017-04-24T03:31:05.493Z,1008.36
2017-04-24T03:31:45.987Z,1008.36
2017-04-24T03:32:26.496Z,1008.37
2017-04-24T03:33:06.985Z,1008.32
2017-04-24T03:33:47.464Z,1008.33
2017-04-24T03:34:27.954Z,1008.3
2017-04-24T03:35:08.430Z,1008.31
2017-04-24T03:35:48.918Z,1008.32
2017-04-24T03:36:29.399Z,1008.35
2017-04-24T03:37:09.888Z,1008.33
2017-04-24T03:37:50.378Z,1008.36
2017-04-24T03:38:30.874Z,1008.38
2017-04-24T03:39:11.367Z,1008.4
2017-04-24T03:39:51.852Z,1008.4
2017-04-24T03:41:49.511Z,1008.36
2017-04-24T03:42:29.994Z,1008.33
2017-04-24T03:43:10.471Z,1008.33
2017-04-24T03:43:50.971Z,1008.33
2017-04-24T03:44:31.448Z,1008.33
2017-04-24T03:45:11.935Z,1008.36
2017-04-24T03:45:52.434Z,1008.38
2017-04-24T03:46:32.926Z,1008.35
2017-04-24T03:47:13.401Z,1008.37
2017-04-24T03:47:53.884Z,1008.33
2017-04-24T03:48:34.372Z,1008.36
2017-04-24T03:49:14.863Z,1008.35
2017-04-24T03:49:55.349Z,1008.34
2017-04-24T03:50:35.832Z,1008.37
2017-04-24T03:51:16.326Z,1008.33
2017-04-24T03:51:56.809Z,1008.34
2017-04-24T03:52:37.275Z,1008.33
2017-04-24T03:53:17.759Z,1008.35
2017-04-24T03:53:58.241Z,1008.31
2017-04-24T03:54:38.730Z,1008.29
2017-04-24T03:55:19.218Z,1008.3
2017-04-24T03:55:59.685Z,1008.27
2017-04-24T03:56:40.177Z,1008.28
2017-04-24T03:57:20.666Z,1008.24
2017-04-24T03:58:01.152Z,1008.24
2017-04-24T03:58:41.635Z,1008.25
2017-04-24T03:59:22.119Z,1008.25
2017-04-24T04:00:02.603Z,1008.24
2017-04-24T04:00:43.089Z,1008.21
2017-04-24T04:01:23.585Z,1008.26
2017-04-24T04:02:04.078Z,1008.23
2017-04-24T04:02:44.560Z,1008.19
2017-04-24T04:03:25.043Z,1008.19
2017-04-24T04:04:05.529Z,1008.24
2017-04-24T04:04:46.019Z,1008.19
2017-04-24T04:05:26.495Z,1008.21
2017-04-24T04:06:06.972Z,1008.16
2017-04-24T04:06:47.475Z,1008.17
2017-04-24T04:07:27.937Z,1008.18
2017-04-24T04:08:08.423Z,1008.12
2017-04-24T04:08:48.919Z,1008.12
2017-04-24T04:09:29.396Z,1008.11
2017-04-24T04:10:09.882Z,1008.1
2017-04-24T04:10:50.370Z,1008.1
2017-04-24T04:11:30.833Z,1008.13
2017-04-24T04:12:11.320Z,1008.1
2017-04-24T04:12:51.823Z,1008.07
2017-04-24T04:13:32.294Z,1008.05
2017-04-24T04:14:12.773Z,1008.05
2017-04-24T04:14:53.254Z,1008.08
2017-04-24T04:15:33.746Z,1008.01
2017-04-24T04:16:14.230Z,1007.99
2017-04-24T04:16:54.703Z,1007.99
2017-04-24T04:17:35.202Z,1007.94
2017-04-24T04:18:15.700Z,1007.97
2017-04-24T04:18:56.173Z,1007.96
2017-04-24T04:19:36.657Z,1007.99
2017-04-24T04:20:17.150Z,1007.95
2017-04-24T04:20:57.627Z,1007.96
2017-04-24T04:21:38.113Z,1007.94
2017-04-24T04:22:18.608Z,1007.91
2017-04-24T04:22:59.105Z,1007.93
2017-04-24T04:23:39.579Z,1007.92
2017-04-24T04:24:20.067Z,1007.93
2017-04-24T04:25:00.571Z,1007.91
2017-04-24T04:25:41.054Z,1007.94
2017-04-24T04:26:21.541Z,1007.88
2017-04-24T04:27:02.029Z,1007.93
2017-04-24T04:27:42.518Z,1007.91
2017-04-24T04:28:22.993Z,1007.87
2017-04-24T04:29:03.487Z,1007.88
2017-04-24T04:29:43.961Z,1007.87
2017-04-24T04:30:24.458Z,1007.89
2017-04-24T04:31:04.944Z,1007.87
2017-04-24T04:31:45.435Z,1007.92
2017-04-24T04:32:25.929Z,1007.9
2017-04-24T04:33:06.429Z,1007.91
2017-04-24T04:33:46.912Z,1007.89
2017-04-24T04:34:27.410Z,1007.88
2017-04-24T04:35:07.887Z,1007.88
2017-04-24T04:35:48.373Z,1007.88
2017-04-24T04:36:28.879Z,1007.87
2017-04-24T04:37:09.334Z,1007.85
2017-04-24T04:37:49.818Z,1007.86
2017-04-24T04:38:30.282Z,1007.86
2017-04-24T04:39:10.763Z,1007.83
2017-04-24T04:39:51.257Z,1007.86
2017-04-24T04:40:31.740Z,1007.89
2017-04-24T04:41:12.225Z,1007.86
2017-04-24T04:41:52.747Z,1007.87
2017-04-24T04:42:33.238Z,1007.87
2017-04-24T04:43:13.721Z,1007.88
2017-04-24T04:43:54.195Z,1007.89
2017-04-24T04:44:34.699Z,1007.92
2017-04-24T04:45:15.188Z,1007.92
2017-04-24T04:45:55.686Z,1007.95
2017-04-24T04:46:36.173Z,1007.92
2017-04-24T04:47:16.662Z,1007.93
2017-04-24T04:47:57.157Z,1007.96
2017-04-24T04:48:37.647Z,1007.92
2017-04-24T04:49:18.133Z,1007.97
2017-04-24T04:49:58.629Z,1007.98
2017-04-24T04:50:39.123Z,1008.01
2017-04-24T04:51:19.608Z,1008.01
2017-04-24T04:52:00.104Z,1008.01
2017-04-24T04:52:40.599Z,1008
2017-04-24T04:53:21.084Z,1008
2017-04-24T04:54:01.578Z,1008.01
2017-04-24T04:54:42.076Z,1008
2017-04-24T04:55:22.550Z,1007.98
2017-04-24T04:56:03.028Z,1007.97
2017-04-24T04:56:43.519Z,1007.97
2017-04-24T04:57:24.012Z,1007.98
2017-04-24T04:58:04.496Z,1007.97
2017-04-24T04:58:44.968Z,1007.97
2017-04-24T04:59:25.456Z,1007.96
2017-04-24T05:00:05.951Z,1007.98
2017-04-24T05:00:46.430Z,1007.93
2017-04-24T05:01:26.904Z,1007.99
2017-04-24T05:02:07.389Z,1007.99
2017-04-24T05:02:47.895Z,1007.95
2017-04-24T05:03:28.364Z,1007.91
2017-04-24T05:04:08.846Z,1007.92
2017-04-24T05:04:49.328Z,1007.94
2017-04-24T05:05:29.819Z,1007.89
2017-04-24T05:06:10.306Z,1007.88
2017-04-24T05:06:50.802Z,1007.86
2017-04-24T05:07:31.300Z,1007.87
2017-04-24T05:08:11.788Z,1007.85
2017-04-24T05:08:52.282Z,1007.86
2017-04-24T05:09:32.776Z,1007.89
2017-04-24T05:10:13.251Z,1007.89
2017-04-24T05:10:53.721Z,1007.88
2017-04-24T05:11:34.216Z,1007.9
2017-04-24T05:12:14.709Z,1007.89
2017-04-24T05:12:55.199Z,1007.91
2017-04-24T05:13:35.693Z,1007.87
2017-04-24T05:14:16.186Z,1007.91
2017-04-24T05:14:56.666Z,1007.91
2017-04-24T05:15:37.152Z,1007.91
2017-04-24T05:16:17.621Z,1007.89
2017-04-24T05:16:58.121Z,1007.88
2017-04-24T05:17:39.404Z,1007.91
2017-04-24T05:18:20.021Z,1007.95
2017-04-24T05:19:00.551Z,1007.9
2017-04-24T05:19:41.029Z,1007.93
2017-04-24T05:20:21.638Z,1007.9
2017-04-24T05:21:02.218Z,1007.94
2017-04-24T05:21:42.718Z,1007.92
2017-04-24T05:22:23.222Z,1007.96
2017-04-24T05:23:03.768Z,1007.92
2017-04-24T05:23:44.325Z,1007.94
2017-04-24T05:24:24.901Z,1007.96
2017-04-24T05:25:05.563Z,1007.93
2017-04-24T05:25:46.197Z,1007.95
2017-04-24T05:26:26.771Z,1007.93
2017-04-24T05:27:07.457Z,1007.93
2017-04-24T05:27:48.080Z,1007.96
2017-04-24T05:28:28.657Z,1007.95
2017-04-24T05:29:09.315Z,1007.96
2017-04-24T05:29:49.960Z,1007.95
2017-04-24T05:30:30.572Z,1008.02
2017-04-24T05:31:11.192Z,1007.99
2017-04-24T05:31:51.819Z,1008.03
2017-04-24T05:32:32.422Z,1008
2017-04-24T05:33:13.089Z,1008.03
2017-04-24T05:33:53.677Z,1008.04
2017-04-24T05:34:34.308Z,1008.02
2017-04-24T05:35:14.928Z,1008.02
2017-04-24T05:35:55.545Z,1008.04
2017-04-24T05:36:36.163Z,1008.01
2017-04-24T05:37:16.831Z,1008.07
2017-04-24T05:37:57.437Z,1008.06
2017-04-24T05:38:38.125Z,1008.11
2017-04-24T05:39:18.757Z,1008.1
2017-04-24T05:39:59.429Z,1008.1
2017-04-24T05:40:40.082Z,1008.08
2017-04-24T05:41:20.713Z,1008.1
2017-04-24T05:42:01.280Z,1008.06
2017-04-24T05:42:41.938Z,1008.07
2017-04-24T05:43:22.568Z,1008.09
2017-04-24T05:44:03.213Z,1008.06
2017-04-24T05:44:43.818Z,1008.08
2017-04-24T05:45:24.401Z,1008.04
2017-04-24T05:46:05.004Z,1008.04
2017-04-24T05:46:45.617Z,1008.01
2017-04-24T05:47:26.222Z,1008.03
2017-04-24T05:48:06.853Z,1007.98
2017-04-24T05:48:47.486Z,1007.99
2017-04-24T05:49:28.121Z,1007.94
2017-04-24T05:50:08.740Z,1007.94
2017-04-24T05:50:49.370Z,1007.94
2017-04-24T05:51:29.994Z,1007.94
2017-04-24T05:52:10.607Z,1007.92
2017-04-24T05:52:51.191Z,1007.94
2017-04-24T05:53:31.789Z,1007.95
2017-04-24T05:54:12.387Z,1007.93
2017-04-24T05:54:53.003Z,1007.96
2017-04-24T05:55:33.608Z,1007.95
2017-04-24T05:56:14.197Z,1007.94
2017-04-24T05:56:54.799Z,1007.99
2017-04-24T05:57:35.408Z,1007.95
2017-04-24T05:58:16.054Z,1007.93
2017-04-24T05:58:56.648Z,1007.92
2017-04-24T05:59:37.282Z,1007.91
2017-04-24T06:00:17.906Z,1007.93
2017-04-24T06:00:58.502Z,1007.93
2017-04-24T06:01:39.079Z,1007.94
2017-04-24T06:02:19.699Z,1007.91
2017-04-24T06:03:00.319Z,1007.96
2017-04-24T06:03:40.938Z,1007.95
2017-04-24T06:04:21.542Z,1007.93
2017-04-24T06:05:02.152Z,1007.94
2017-04-24T06:05:42.756Z,1007.95
2017-04-24T06:06:23.354Z,1007.94
2017-04-24T06:07:03.935Z,1007.95
2017-04-24T06:07:44.534Z,1007.91
2017-04-24T06:08:25.132Z,1007.93
2017-04-24T06:09:05.733Z,1007.91
2017-04-24T06:09:46.311Z,1007.89
2017-04-24T06:10:26.902Z,1007.87
2017-04-24T06:11:07.504Z,1007.86
2017-04-24T06:11:48.086Z,1007.86
2017-04-24T06:12:28.690Z,1007.86
2017-04-24T06:13:09.251Z,1007.87
2017-04-24T06:13:49.789Z,1007.88
2017-04-24T06:14:30.350Z,1007.88
2017-04-24T06:15:10.907Z,1007.85
2017-04-24T06:15:51.478Z,1007.87
2017-04-24T06:16:32.088Z,1007.92
2017-04-24T06:17:12.697Z,1007.83
2017-04-24T06:17:53.325Z,1007.85
2017-04-24T06:18:33.935Z,1007.87
2017-04-24T06:19:14.552Z,1007.86
2017-04-24T06:19:55.093Z,1007.87
2017-04-24T06:20:35.575Z,1007.87
2017-04-24T06:21:16.175Z,1007.86
2017-04-24T06:21:56.793Z,1007.82
2017-04-24T06:22:37.423Z,1007.85
2017-04-24T06:23:18.063Z,1007.89
2017-04-24T06:23:58.642Z,1007.86
2017-04-24T06:24:39.235Z,1007.84
2017-04-24T06:25:19.852Z,1007.86
2017-04-24T06:26:00.441Z,1007.85
2017-04-24T06:26:41.054Z,1007.86
2017-04-24T06:27:21.696Z,1007.88
2017-04-24T06:28:02.333Z,1007.85
2017-04-24T06:28:42.969Z,1007.86
2017-04-24T06:29:23.621Z,1007.84
2017-04-24T06:30:04.203Z,1007.86
2017-04-24T06:30:44.776Z,1007.87
2017-04-24T06:31:25.477Z,1007.88
2017-04-24T06:32:06.074Z,1007.88
2017-04-24T06:32:46.650Z,1007.88
2017-04-24T06:33:27.275Z,1007.86
2017-04-24T06:34:07.897Z,1007.84
2017-04-24T06:34:48.503Z,1007.87
2017-04-24T06:35:29.089Z,1007.84
2017-04-24T06:36:09.609Z,1007.88
2017-04-24T06:36:50.158Z,1007.86
2017-04-24T06:37:30.739Z,1007.85
2017-04-24T06:38:11.303Z,1007.82
2017-04-24T06:38:51.836Z,1007.82
2017-04-24T06:39:32.449Z,1007.85
2017-04-24T06:40:12.952Z,1007.81
2017-04-24T06:40:53.569Z,1007.85
2017-04-24T06:41:34.858Z,1007.8
2017-04-24T06:42:15.354Z,1007.81
2017-04-24T06:42:55.891Z,1007.83
2017-04-24T06:43:36.431Z,1007.81
2017-04-24T06:44:16.937Z,1007.83
2017-04-24T06:44:57.461Z,1007.87
2017-04-24T06:45:37.980Z,1007.81
2017-04-24T06:46:18.519Z,1007.88
2017-04-24T06:46:59.114Z,1007.86
2017-04-24T06:47:39.690Z,1007.86
2017-04-24T06:48:20.323Z,1007.83
2017-04-24T06:49:00.883Z,1007.86
2017-04-24T06:49:41.452Z,1007.84
2017-04-24T06:50:21.956Z,1007.85
2017-04-24T06:51:02.468Z,1007.83
2017-04-24T06:51:43.000Z,1007.82
2017-04-24T06:52:23.562Z,1007.85
2017-04-24T06:53:04.123Z,1007.85
2017-04-24T06:53:44.675Z,1007.83
2017-04-24T06:54:25.207Z,1007.83
2017-04-24T06:55:05.773Z,1007.78
2017-04-24T06:55:46.335Z,1007.82
2017-04-24T06:56:26.896Z,1007.78
2017-04-24T06:57:07.440Z,1007.8
2017-04-24T06:57:48.028Z,1007.76
2017-04-24T06:58:28.571Z,1007.75
2017-04-24T06:59:09.126Z,1007.76
2017-04-24T06:59:49.639Z,1007.75
2017-04-24T07:00:30.161Z,1007.73
2017-04-24T07:01:10.709Z,1007.71
2017-04-24T07:01:51.267Z,1007.67
2017-04-24T07:02:31.773Z,1007.67
2017-04-24T07:03:12.341Z,1007.65
2017-04-24T07:03:52.900Z,1007.67
2017-04-24T07:04:33.457Z,1007.69
2017-04-24T07:05:13.998Z,1007.67
2017-04-24T07:05:54.574Z,1007.66
2017-04-24T07:06:35.144Z,1007.65
2017-04-24T07:07:15.668Z,1007.69
2017-04-24T07:07:56.228Z,1007.64
2017-04-24T07:08:36.795Z,1007.65
2017-04-24T07:09:17.337Z,1007.64
2017-04-24T07:09:57.903Z,1007.62
2017-04-24T07:10:38.459Z,1007.64
2017-04-24T07:11:19.002Z,1007.62
2017-04-24T07:11:59.529Z,1007.61
2017-04-24T07:12:40.047Z,1007.64
2017-04-24T07:13:20.617Z,1007.58
2017-04-24T07:14:01.155Z,1007.56
2017-04-24T07:14:41.736Z,1007.56
2017-04-24T07:15:22.267Z,1007.56
2017-04-24T07:17:40.151Z,1007.5
2017-04-24T07:18:20.710Z,1007.5
2017-04-24T07:19:01.261Z,1007.5
2017-04-24T07:19:41.765Z,1007.49
2017-04-24T07:20:22.370Z,1007.44
2017-04-24T07:21:02.968Z,1007.45
2017-04-24T07:21:43.537Z,1007.44
2017-04-24T07:22:24.066Z,1007.45
2017-04-24T07:23:04.638Z,1007.43
2017-04-24T07:23:45.206Z,1007.46
2017-04-24T07:24:25.759Z,1007.42
2017-04-24T07:25:06.340Z,1007.44
2017-04-24T07:25:46.895Z,1007.42
2017-04-24T07:26:27.447Z,1007.41
2017-04-24T07:27:07.934Z,1007.39
2017-04-24T07:27:48.456Z,1007.46
2017-04-24T07:28:28.981Z,1007.43
2017-04-24T07:29:09.506Z,1007.46
2017-04-24T07:29:50.056Z,1007.47
2017-04-24T07:30:30.592Z,1007.47
2017-04-24T07:31:11.093Z,1007.44
2017-04-24T07:31:51.629Z,1007.46
2017-04-24T07:32:32.104Z,1007.43
2017-04-24T07:33:13.192Z,1007.47
2017-04-24T07:33:53.706Z,1007.48
2017-04-24T07:34:34.234Z,1007.47
2017-04-24T07:35:14.742Z,1007.44
2017-04-24T07:35:55.231Z,1007.44
2017-04-24T07:36:35.745Z,1007.45
2017-04-24T07:37:16.318Z,1007.47
2017-04-24T07:37:56.808Z,1007.43
2017-04-24T07:38:37.293Z,1007.41
2017-04-24T07:39:17.812Z,1007.41
2017-04-24T07:39:58.325Z,1007.4
2017-04-24T07:40:38.846Z,1007.42
2017-04-24T07:42:51.573Z,1007.39
2017-04-24T07:43:32.048Z,1007.41
2017-04-24T07:44:12.576Z,1007.42
2017-04-24T07:44:53.058Z,1007.39
2017-04-24T07:45:33.521Z,1007.39
2017-04-24T07:46:14.096Z,1007.38
2017-04-24T07:46:54.682Z,1007.38
2017-04-24T07:47:35.347Z,1007.36
2017-04-24T07:48:15.886Z,1007.38
2017-04-24T07:48:56.397Z,1007.37
2017-04-24T07:49:36.968Z,1007.4
2017-04-24T07:50:17.518Z,1007.38
2017-04-24T07:50:58.056Z,1007.42
2017-04-24T07:51:38.574Z,1007.46
2017-04-24T07:52:19.155Z,1007.59
2017-04-24T07:52:59.665Z,1007.63
2017-04-24T07:53:40.236Z,1007.59
2017-04-24T07:54:20.849Z,1007.32
2017-04-24T07:55:01.376Z,1007.26
2017-04-24T07:55:41.921Z,1007.25
2017-04-24T07:56:23.139Z,1007.24
2017-04-24T07:57:03.643Z,1007.22
2017-04-24T07:57:44.171Z,1007.22
2017-04-24T07:58:24.655Z,1007.19
2017-04-24T07:59:05.174Z,1007.18
2017-04-24T07:59:45.676Z,1007.18
2017-04-24T08:00:26.143Z,1007.11
2017-04-24T08:01:06.696Z,1007.12
2017-04-24T08:01:47.201Z,1007.1
2017-04-24T08:02:27.679Z,1007.1
2017-04-24T08:03:08.226Z,1007.06
2017-04-24T08:03:48.793Z,1007.07
2017-04-24T08:04:29.321Z,1007.08
2017-04-24T08:05:09.857Z,1007.03
2017-04-24T08:05:50.409Z,1007.08
2017-04-24T08:06:30.926Z,1007.03
2017-04-24T08:07:11.499Z,1007.04
2017-04-24T08:07:52.021Z,1007.01
2017-04-24T08:08:32.606Z,1007.13
2017-04-24T08:09:13.102Z,1007.34
2017-04-24T08:09:53.646Z,1007.44
2017-04-24T08:10:34.159Z,1007.61
2017-04-24T08:11:14.684Z,1007.7
2017-04-24T08:11:55.221Z,1007.74
2017-04-24T08:12:35.734Z,1007.77
2017-04-24T08:13:16.338Z,1007.78
2017-04-24T08:13:56.870Z,1007.73
2017-04-24T08:14:37.390Z,1007.66
2017-04-24T08:15:17.950Z,1007.66
2017-04-24T08:15:58.452Z,1007.63
2017-04-24T08:16:38.958Z,1007.63
2017-04-24T08:17:20.365Z,1007.62